Time;durP1;ratioP1;P1;durP2;ratioP2;P2;SDS_P1;SDS_P2;PMS_P1;PMS_P2;Temp;Humidity;BMP_temperature;BMP_pressure;BME280_temperature;BME280_humidity;BME280_pressure;Samples;Min_cycle;Max_cycle;Signal;HPM_P1;HPM_P2
2022/06/22 00:02:07;;;;;;;14.45;11.18;;;14.10;99.90;;;;;;5069968;28;20036;-71
2022/06/22 00:04:35;;;;;;;15.63;11.43;;;14.10;99.90;;;;;;5071111;28;20048;-71
2022/06/22 00:07:08;;;;;;;16.52;12.05;;;14.10;99.90;;;;;;5074896;28;20044;-71
2022/06/22 00:09:37;;;;;;;18.98;12.55;;;14.10;99.90;;;;;;5075001;28;20501;-71
2022/06/22 00:12:04;;;;;;;15.45;11.98;;;13.90;99.90;;;;;;5074941;28;20111;-71
2022/06/22 00:14:41;;;;;;;18.25;11.98;;;14.00;99.90;;;;;;5074708;28;20047;-71
2022/06/22 00:17:20;;;;;;;15.15;11.45;;;13.90;99.90;;;;;;5074812;28;20211;-71
2022/06/22 00:19:47;;;;;;;18.92;12.63;;;13.90;99.90;;;;;;5073510;28;20044;-71
2022/06/22 00:22:22;;;;;;;14.45;10.90;;;13.80;99.90;;;;;;5074771;28;20119;-72
2022/06/22 00:25:09;;;;;;;18.50;12.23;;;13.80;99.90;;;;;;5074395;28;20047;-71
2022/06/22 00:27:36;;;;;;;16.88;12.40;;;13.70;99.90;;;;;;5074821;28;20045;-71
2022/06/22 00:30:24;;;;;;;14.82;12.25;;;13.60;99.90;;;;;;5073412;28;20048;-71
2022/06/22 00:33:21;;;;;;;18.15;11.88;;;13.70;99.90;;;;;;5070811;28;20159;-71
2022/06/22 00:35:49;;;;;;;17.00;12.50;;;13.60;99.90;;;;;;5072317;28;20052;-71
2022/06/22 00:38:27;;;;;;;18.58;13.23;;;13.60;99.90;;;;;;5073133;28;20051;-71
2022/06/22 00:40:57;;;;;;;17.15;12.00;;;13.60;99.90;;;;;;5074563;28;20040;-71
2022/06/22 00:43:28;;;;;;;18.38;11.85;;;13.50;99.90;;;;;;5073081;28;20093;-71
2022/06/22 00:45:56;;;;;;;23.45;12.52;;;13.50;99.90;;;;;;5074049;28;20154;-71
2022/06/22 00:48:27;;;;;;;17.35;12.35;;;13.60;99.90;;;;;;5072922;28;20121;-71
2022/06/22 00:51:12;;;;;;;19.45;13.60;;;13.50;99.90;;;;;;5074327;28;20389;-71
2022/06/22 00:53:42;;;;;;;16.65;11.93;;;13.40;99.90;;;;;;5072757;28;20048;-71
2022/06/22 00:56:41;;;;;;;17.60;13.35;;;13.40;99.90;;;;;;5073763;28;20416;-71
2022/06/22 00:59:35;;;;;;;16.98;13.70;;;13.40;99.90;;;;;;5072738;28;20486;-71
2022/06/22 01:02:14;;;;;;;;;;;13.40;99.90;;;;;;5074615;28;20402;-71
2022/06/22 01:04:49;;;;;;;12.98;10.80;;;13.30;99.90;;;;;;5073813;28;19943;-71
2022/06/22 01:07:44;;;;;;;18.85;11.80;;;13.20;99.90;;;;;;5074087;28;20554;-71
2022/06/22 01:10:26;;;;;;;18.73;12.20;;;13.20;99.90;;;;;;5072528;28;20037;-71
2022/06/22 01:12:53;;;;;;;13.45;10.82;;;13.20;99.90;;;;;;5073754;28;20047;-71
2022/06/22 01:15:45;;;;;;;21.70;12.40;;;13.20;99.90;;;;;;5072031;28;20524;-71
2022/06/22 01:18:33;;;;;;;21.98;13.32;;;13.10;99.90;;;;;;5072476;28;20058;-71
2022/06/22 01:21:23;;;;;;;17.42;12.00;;;13.10;99.90;;;;;;5096787;22;20497;-70
2022/06/22 01:24:04;;;;;;;17.00;12.00;;;13.00;99.90;;;;;;5073425;28;20045;-70
2022/06/22 01:26:46;;;;;;;16.13;12.10;;;13.00;99.90;;;;;;5073184;28;20045;-71
2022/06/22 01:29:21;;;;;;;15.73;10.63;;;12.90;99.90;;;;;;5073223;28;20550;-71
2022/06/22 01:32:04;;;;;;;12.40;10.15;;;12.90;99.90;;;;;;5073231;28;20032;-71
2022/06/22 01:34:59;;;;;;;9.65;7.03;;;12.80;99.90;;;;;;5073231;28;20509;-70
2022/06/22 01:37:28;;;;;;;6.22;5.13;;;12.70;99.90;;;;;;5071101;28;20079;-70
2022/06/22 01:40:34;;;;;;;3.90;3.10;;;12.60;99.90;;;;;;5072008;28;20044;-70
2022/06/22 01:43:14;;;;;;;3.10;2.45;;;12.50;99.90;;;;;;5072318;28;20444;-70
2022/06/22 01:45:47;;;;;;;4.30;2.58;;;12.30;99.90;;;;;;5072852;28;20123;-70
2022/06/22 01:48:20;;;;;;;2.25;2.03;;;12.30;99.90;;;;;;5072994;28;20036;-70
2022/06/22 01:50:49;;;;;;;2.50;1.80;;;12.20;99.90;;;;;;5072843;28;20051;-70
2022/06/22 01:53:24;;;;;;;2.88;2.15;;;12.10;99.90;;;;;;5073011;28;20044;-70
2022/06/22 01:55:56;;;;;;;5.03;3.95;;;12.20;99.90;;;;;;5071177;28;20501;-70
2022/06/22 01:58:21;;;;;;;4.50;3.65;;;12.10;99.90;;;;;;5072795;28;20413;-71
2022/06/22 02:00:57;;;;;;;4.43;2.88;;;12.00;99.90;;;;;;5072563;28;20040;-70
2022/06/22 02:03:28;;;;;;;3.47;2.45;;;12.10;99.90;;;;;;5072765;28;20044;-70
2022/06/22 02:07:44;;;;;;;4.90;3.60;;;12.00;99.90;;;;;;5072479;28;20068;-70
2022/06/22 02:09:01;;;;;;;5.10;3.97;;;12.00;99.90;;;;;;5072319;28;20052;-70
2022/06/22 02:11:30;;;;;;;7.25;4.20;;;12.00;99.90;;;;;;5072294;28;20067;-70
2022/06/22 02:14:10;;;;;;;8.57;4.90;;;12.00;99.90;;;;;;5072633;28;20047;-70
2022/06/22 02:16:42;;;;;;;6.07;5.38;;;12.00;99.90;;;;;;5072168;28;20037;-70
2022/06/22 02:19:12;;;;;;;5.15;4.40;;;12.00;99.90;;;;;;5071059;28;20098;-71
2022/06/22 02:21:40;;;;;;;6.60;3.60;;;11.90;99.90;;;;;;5072294;28;20117;-70
2022/06/22 02:24:28;;;;;;;4.97;3.60;;;11.80;99.90;;;;;;5072058;28;20044;-71
2022/06/22 02:27:01;;;;;;;3.92;2.53;;;11.60;99.90;;;;;;5071203;28;20086;-70
2022/06/22 02:29:34;;;;;;;;;;;11.60;99.90;;;;;;5072538;28;20123;-71
2022/06/22 02:32:03;;;;;;;3.90;3.15;;;11.40;99.90;;;;;;5071050;28;19927;-70
2022/06/22 02:34:31;;;;;;;4.13;3.58;;;11.50;99.90;;;;;;5071998;28;20044;-70
2022/06/22 02:37:00;;;;;;;5.03;3.95;;;11.50;99.90;;;;;;5071995;28;20040;-70
2022/06/22 02:39:29;;;;;;;3.50;3.20;;;11.50;99.90;;;;;;5071883;28;20496;-70
2022/06/22 02:44:44;;;;;;;5.65;3.58;;;11.40;99.90;;;;;;5071712;28;20049;-70
2022/06/22 02:47:29;;;;;;;4.40;3.38;;;11.40;99.90;;;;;;5070546;28;20060;-70
2022/06/22 02:50:13;;;;;;;4.97;4.05;;;11.40;99.90;;;;;;5072015;28;20039;-70
2022/06/22 02:53:01;;;;;;;4.15;3.67;;;11.40;99.90;;;;;;5071971;28;20098;-70
2022/06/22 02:55:32;;;;;;;5.15;4.30;;;11.40;99.90;;;;;;5071749;28;20041;-70
2022/06/22 02:57:59;;;;;;;7.13;5.25;;;11.40;99.90;;;;;;5072216;28;20041;-70
2022/06/22 03:00:28;;;;;;;5.60;4.88;;;11.20;99.90;;;;;;5070421;28;20047;-70
2022/06/22 03:03:03;;;;;;;5.63;4.95;;;11.30;99.90;;;;;;5071635;28;20048;-71
2022/06/22 03:05:29;;;;;;;5.15;4.65;;;11.20;99.90;;;;;;5071443;28;20036;-70
2022/06/22 03:07:59;;;;;;;5.75;4.75;;;11.30;99.90;;;;;;5070623;28;20117;-70
2022/06/22 03:10:49;;;;;;;5.78;5.13;;;11.30;99.90;;;;;;5070274;28;20115;-70
2022/06/22 03:13:19;;;;;;;5.88;4.90;;;11.30;99.90;;;;;;5070409;28;20098;-70
2022/06/22 03:15:46;;;;;;;7.20;5.45;;;11.30;99.90;;;;;;5071442;28;20401;-70
2022/06/22 03:18:19;;;;;;;7.53;5.03;;;11.40;99.90;;;;;;5071504;28;20037;-70
2022/06/22 03:20:55;;;;;;;6.35;4.85;;;11.40;99.90;;;;;;5071664;28;20037;-70
2022/06/22 03:23:26;;;;;;;9.48;6.32;;;11.40;99.90;;;;;;5070177;28;20051;-70
2022/06/22 03:26:05;;;;;;;6.93;5.20;;;11.30;99.90;;;;;;5071302;28;20051;-70
2022/06/22 03:28:38;;;;;;;5.93;5.18;;;11.30;99.90;;;;;;5071416;28;20036;-70
2022/06/22 03:31:14;;;;;;;7.22;5.78;;;11.30;99.90;;;;;;5070186;28;20040;-70
2022/06/22 03:33:48;;;;;;;7.07;5.93;;;11.30;99.90;;;;;;5070111;28;20052;-70
2022/06/22 03:36:21;;;;;;;8.10;6.18;;;11.30;99.90;;;;;;5071233;28;20071;-70
2022/06/22 03:38:55;;;;;;;8.07;6.05;;;11.30;99.90;;;;;;5073069;28;20044;-70
2022/06/22 03:41:26;;;;;;;8.43;6.80;;;11.30;99.90;;;;;;5075595;28;20056;-71
2022/06/22 03:44:11;;;;;;;8.23;6.68;;;11.40;99.90;;;;;;5075459;28;20169;-70
2022/06/22 03:46:46;;;;;;;8.50;6.72;;;11.40;99.90;;;;;;5075116;28;20091;-70
2022/06/22 03:49:42;;;;;;;11.15;6.93;;;11.50;99.90;;;;;;5075264;28;20044;-70
2022/06/22 03:52:31;;;;;;;10.93;6.97;;;11.50;99.90;;;;;;5075261;28;20040;-70
2022/06/22 03:55:04;;;;;;;10.45;7.78;;;11.50;99.90;;;;;;5075000;28;20419;-70
2022/06/22 03:57:39;;;;;;;13.83;8.67;;;11.60;99.90;;;;;;5075112;28;20119;-71
2022/06/22 04:00:06;;;;;;;11.88;9.68;;;11.60;99.90;;;;;;5075141;28;20346;-70
2022/06/22 04:02:32;;;;;;;14.23;10.52;;;11.60;99.90;;;;;;5073623;28;20051;-70
2022/06/22 04:04:59;;;;;;;11.63;10.15;;;11.60;99.90;;;;;;5074761;28;20041;-70
2022/06/22 04:07:27;;;;;;;12.43;9.23;;;11.60;99.90;;;;;;5074927;28;20115;-70
2022/06/22 04:09:55;;;;;;;10.93;8.25;;;11.60;99.90;;;;;;5074792;28;20037;-70
2022/06/22 04:12:40;;;;;;;11.18;9.55;;;11.70;99.90;;;;;;5073362;28;20079;-70
2022/06/22 04:15:33;;;;;;;15.10;11.32;;;11.70;99.90;;;;;;5074592;28;20048;-70
2022/06/22 04:18:02;;;;;;;16.13;11.87;;;11.80;99.90;;;;;;5073768;28;20485;-70
2022/06/22 04:20:50;;;;;;;19.80;11.95;;;11.90;99.90;;;;;;5073091;28;20032;-70
2022/06/22 04:23:31;;;;;;;18.63;13.30;;;11.90;99.90;;;;;;5074702;28;20040;-71
2022/06/22 04:26:11;;;;;;;16.88;12.02;;;12.00;99.90;;;;;;5073302;28;20049;-70
2022/06/22 04:28:41;;;;;;;17.23;11.55;;;12.00;99.90;;;;;;5074443;28;20041;-71
2022/06/22 04:31:14;;;;;;;13.55;10.90;;;12.10;99.90;;;;;;5074394;28;20046;-71
2022/06/22 04:33:48;;;;;;;16.42;11.80;;;12.20;99.90;;;;;;5073172;28;20255;-71
2022/06/22 04:36:25;;;;;;;17.33;11.13;;;12.30;99.90;;;;;;5072772;28;20040;-71
2022/06/22 04:38:57;;;;;;;17.42;12.40;;;12.50;99.90;;;;;;5074347;28;20113;-71
2022/06/22 04:41:25;;;;;;;19.80;12.10;;;12.60;99.90;;;;;;5074224;28;20077;-71
2022/06/22 04:43:52;;;;;;;17.30;13.20;;;12.70;99.90;;;;;;5074363;28;20052;-71
2022/06/22 04:46:28;;;;;;;18.80;13.43;;;12.90;99.90;;;;;;5074100;28;20094;-70
2022/06/22 04:48:57;;;;;;;17.58;12.27;;;13.10;99.90;;;;;;5074404;28;20416;-70
2022/06/22 04:51:29;;;;;;;18.15;12.45;;;13.30;99.90;;;;;;5073294;28;20037;-71
2022/06/22 04:54:31;;;;;;;17.65;12.75;;;13.50;99.90;;;;;;5074021;28;20497;-71
2022/06/22 04:57:01;;;;;;;15.35;11.13;;;13.80;99.90;;;;;;5073752;28;20613;-70
2022/06/22 04:59:29;;;;;;;16.63;10.85;;;14.00;99.90;;;;;;5074131;28;20459;-70
2022/06/22 05:01:58;;;;;;;20.23;13.55;;;14.30;99.90;;;;;;5073835;28;20404;-71
2022/06/22 05:04:34;;;;;;;16.05;11.13;;;14.50;99.90;;;;;;5073644;28;20468;-71
2022/06/22 05:07:02;;;;;;;13.13;10.90;;;14.80;99.90;;;;;;5073680;28;20120;-71
2022/06/22 05:09:40;;;;;;;15.35;11.13;;;15.10;99.90;;;;;;5073569;28;20115;-70
2022/06/22 05:12:13;;;;;;;16.33;12.18;;;15.40;99.90;;;;;;5072550;28;20521;-71
2022/06/22 05:14:39;;;;;;;;;;;15.70;99.90;;;;;;5074089;28;20099;-70
2022/06/22 05:17:27;;;;;;;14.25;11.68;;;16.00;99.90;;;;;;5073719;28;20335;-70
2022/06/22 05:20:07;;;;;;;17.05;11.07;;;16.40;99.90;;;;;;5073560;28;20451;-71
2022/06/22 05:22:33;;;;;;;18.48;11.77;;;16.70;99.90;;;;;;5073419;28;20493;-71
2022/06/22 05:25:02;;;;;;;16.10;11.25;;;16.90;99.90;;;;;;5073088;28;20039;-72
2022/06/22 05:27:33;;;;;;;18.00;11.68;;;17.10;99.90;;;;;;5073371;28;20113;-71
2022/06/22 05:30:07;;;;;;;18.58;10.38;;;17.40;99.90;;;;;;5073641;28;20048;-70
2022/06/22 05:32:39;;;;;;;16.48;12.70;;;17.60;99.90;;;;;;5073463;28;20036;-71
2022/06/22 05:35:12;;;;;;;13.65;10.05;;;17.80;99.90;;;;;;5073587;28;20071;-71
2022/06/22 05:37:43;;;;;;;12.60;9.15;;;18.20;99.90;;;;;;5073232;28;20322;-71
2022/06/22 05:40:10;;;;;;;15.65;9.00;;;18.50;99.90;;;;;;5072163;28;20064;-71
2022/06/22 05:42:36;;;;;;;15.23;9.75;;;18.90;99.90;;;;;;5072991;28;20485;-71
2022/06/22 05:45:04;;;;;;;11.48;8.27;;;19.00;99.90;;;;;;5072705;28;20040;-71
2022/06/22 05:47:33;;;;;;;12.57;9.40;;;19.10;99.90;;;;;;5073245;28;20048;-71
2022/06/22 05:50:10;;;;;;;15.27;10.60;;;19.20;99.90;;;;;;5072847;28;20040;-71
2022/06/22 05:52:49;;;;;;;12.73;9.57;;;19.50;99.90;;;;;;5073231;28;20094;-71
2022/06/22 05:55:27;;;;;;;13.57;9.35;;;19.70;99.90;;;;;;5072966;28;20063;-71
2022/06/22 05:58:00;;;;;;;12.20;9.38;;;19.60;99.90;;;;;;5071719;28;20032;-71
2022/06/22 06:00:33;;;;;;;11.38;9.07;;;19.50;99.90;;;;;;5072764;28;20039;-70
2022/06/22 06:03:21;;;;;;;16.40;10.85;;;19.60;99.90;;;;;;5071817;28;20041;-71
2022/06/22 06:05:52;;;;;;;13.85;10.63;;;20.00;99.90;;;;;;5072489;28;20040;-73
2022/06/22 06:08:24;;;;;;;17.80;10.55;;;20.00;99.90;;;;;;5073064;28;20032;-70
2022/06/22 06:10:51;;;;;;;14.85;10.10;;;20.20;99.90;;;;;;5072444;28;20036;-71
2022/06/22 06:13:16;;;;;;;16.95;9.43;;;20.50;99.90;;;;;;5072484;28;20049;-70
2022/06/22 06:15:44;;;;;;;10.38;8.05;;;20.80;99.90;;;;;;5072343;28;20051;-70
2022/06/22 06:18:19;;;;;;;15.20;9.50;;;21.00;99.60;;;;;;5072889;28;20055;-72
2022/06/22 06:20:49;;;;;;;11.35;8.00;;;21.20;98.60;;;;;;5072279;28;20041;-71
2022/06/22 06:23:43;;;;;;;14.43;8.35;;;21.30;98.40;;;;;;5072257;28;20089;-71
2022/06/22 06:29:18;;;;;;;16.20;7.28;;;21.50;96.60;;;;;;5072235;28;20045;-72
2022/06/22 06:32:06;;;;;;;11.45;7.60;;;21.40;94.90;;;;;;5072099;28;20098;-72
2022/06/22 06:34:59;;;;;;;9.32;6.05;;;21.60;93.50;;;;;;5072309;28;20044;-72
2022/06/22 06:37:38;;;;;;;9.90;5.45;;;21.60;92.50;;;;;;5072299;28;20032;-72
2022/06/22 06:40:04;;;;;;;14.10;7.53;;;21.60;92.80;;;;;;5072121;28;20502;-72
2022/06/22 06:42:41;;;;;;;8.10;5.32;;;21.80;92.20;;;;;;5072031;28;20119;-71
2022/06/22 06:45:20;;;;;;;11.70;5.28;;;21.80;90.90;;;;;;5072090;28;20033;-72
2022/06/22 06:47:51;;;;;;;10.77;4.97;;;22.10;90.20;;;;;;5071954;28;20520;-71
2022/06/22 06:50:24;;;;;;;8.98;4.90;;;22.10;90.60;;;;;;5070665;28;20106;-72
2022/06/22 06:53:25;;;;;;;10.05;4.72;;;22.40;88.50;;;;;;5071997;28;20790;-72
2022/06/22 06:56:18;;;;;;;8.50;3.10;;;22.60;86.60;;;;;;5071763;28;20098;-72
2022/06/22 06:58:58;;;;;;;6.72;3.75;;;22.80;83.70;;;;;;5071965;28;20059;-72
2022/06/22 07:01:27;;;;;;;7.18;3.13;;;23.00;83.70;;;;;;5070604;28;20051;-71
2022/06/22 07:04:02;;;;;;;6.78;3.88;;;22.90;84.40;;;;;;5071795;28;20099;-71
2022/06/22 07:06:29;;;;;;;8.77;4.43;;;22.80;82.90;;;;;;5071276;28;20072;-71
2022/06/22 07:08:59;;;;;;;8.90;3.40;;;22.80;84.70;;;;;;5071296;28;20021;-70
2022/06/22 07:11:46;;;;;;;7.40;3.63;;;22.70;84.20;;;;;;5070206;28;20048;-72
2022/06/22 07:14:19;;;;;;;7.75;3.60;;;23.00;81.80;;;;;;5053429;28;20043;-70
2022/06/22 07:16:47;;;;;;;8.43;3.90;;;23.10;80.30;;;;;;5071573;28;20099;-71
2022/06/22 07:19:25;;;;;;;4.95;3.08;;;23.30;79.50;;;;;;5071452;28;20037;-71
2022/06/22 07:22:07;;;;;;;5.85;3.60;;;23.50;78.40;;;;;;5078310;22;20052;-69
2022/06/22 07:24:48;;;;;;;7.05;4.13;;;23.50;75.20;;;;;;5091979;28;20083;-71
2022/06/22 07:27:37;;;;;;;9.25;4.30;;;23.50;75.70;;;;;;5091862;28;20058;-71
2022/06/22 07:30:15;;;;;;;6.97;2.90;;;23.50;72.10;;;;;;5091288;28;20032;-71
2022/06/22 07:32:44;;;;;;;6.85;3.10;;;23.50;71.30;;;;;;5092139;28;20071;-71
2022/06/22 07:35:43;;;;;;;4.13;2.50;;;23.60;71.90;;;;;;5091639;28;20044;-71
2022/06/22 07:38:19;;;;;;;8.57;3.10;;;23.70;68.50;;;;;;5091738;28;20378;-71
2022/06/22 07:43:33;;;;;;;5.45;2.67;;;23.90;70.80;;;;;;5091994;28;20069;-71
2022/06/22 07:45:58;;;;;;;7.72;2.58;;;23.90;69.70;;;;;;5073440;28;20128;-72
2022/06/22 07:48:26;;;;;;;5.90;2.55;;;24.10;67.90;;;;;;5091794;28;20122;-71
2022/06/22 07:50:57;;;;;;;6.60;3.33;;;24.10;66.80;;;;;;5091578;28;20493;-72
2022/06/22 07:53:30;;;;;;;5.60;2.65;;;24.20;67.90;;;;;;5073516;28;20058;-72
2022/06/22 07:56:21;;;;;;;9.48;3.53;;;24.10;63.30;;;;;;5091624;28;20032;-71
2022/06/22 07:58:58;;;;;;;5.93;2.90;;;24.20;64.90;;;;;;5091737;28;20400;-71
2022/06/22 08:01:45;;;;;;;5.78;2.55;;;24.10;66.20;;;;;;5091520;28;20044;-71
2022/06/22 08:04:17;;;;;;;5.80;3.53;;;24.40;65.70;;;;;;5064390;28;20123;-72
2022/06/22 08:07:05;;;;;;;5.67;2.70;;;24.30;65.10;;;;;;5080341;28;20461;-72
2022/06/22 08:09:59;;;;;;;6.55;3.50;;;24.60;63.70;;;;;;5070539;28;20044;-72
2022/06/22 08:12:48;;;;;;;7.70;3.03;;;24.60;65.10;;;;;;5091583;28;20032;-70
2022/06/22 08:15:17;;;;;;;6.97;2.95;;;24.60;61.90;;;;;;5091126;28;20512;-71
2022/06/22 08:17:47;;;;;;;7.50;3.03;;;24.70;63.70;;;;;;5056717;28;20392;-70
2022/06/22 08:20:20;;;;;;;7.82;3.05;;;25.10;64.50;;;;;;5056157;28;20127;-70
2022/06/22 08:22:48;;;;;;;8.55;3.50;;;25.10;63.10;;;;;;5091463;28;20067;-69
2022/06/22 08:25:16;;;;;;;7.18;3.53;;;25.30;63.80;;;;;;5073802;28;20531;-69
2022/06/22 08:27:43;;;;;;;7.95;4.15;;;24.90;62.90;;;;;;5095024;28;20042;-71
2022/06/22 08:30:10;;;;;;;9.43;4.10;;;25.30;64.70;;;;;;5076974;28;20031;-70
2022/06/22 08:32:58;;;;;;;9.20;3.53;;;25.20;64.70;;;;;;5076640;28;20097;-71
2022/06/22 08:35:43;;;;;;;5.70;3.03;;;25.20;62.00;;;;;;5076592;28;20036;-70
2022/06/22 08:38:36;;;;;;;8.70;3.53;;;25.00;61.50;;;;;;5071856;28;20405;-70
2022/06/22 08:41:21;;;;;;;6.85;4.03;;;25.10;60.00;;;;;;5066621;28;20090;-69
2022/06/22 08:44:14;;;;;;;5.57;4.20;;;25.10;59.30;;;;;;5084034;28;20555;-69
2022/06/22 08:47:16;;;;;;;7.38;3.90;;;25.00;58.80;;;;;;5074118;28;20043;-70
2022/06/22 08:50:20;;;;;;;9.15;4.10;;;24.90;60.80;;;;;;5074401;28;20051;-70
2022/06/22 08:52:54;;;;;;;9.50;4.28;;;25.20;62.00;;;;;;5056255;28;20052;-70
2022/06/22 08:56:00;;;;;;;8.30;4.07;;;25.20;58.10;;;;;;5073862;28;20041;-70
2022/06/22 08:58:42;;;;;;;7.45;4.65;;;25.30;58.30;;;;;;5056197;28;20362;-71
2022/06/22 09:01:31;;;;;;;12.15;4.30;;;25.10;57.80;;;;;;5074073;28;20091;-71
2022/06/22 09:04:32;;;;;;;7.22;4.90;;;25.20;60.80;;;;;;5073741;28;20041;-71
2022/06/22 09:07:31;;;;;;;8.20;5.68;;;25.20;61.40;;;;;;5073859;28;20032;-70
2022/06/22 09:10:06;;;;;;;7.70;4.65;;;25.20;59.60;;;;;;5073946;28;20409;-72
2022/06/22 09:13:05;;;;;;;7.57;4.60;;;25.10;60.50;;;;;;5073791;28;20072;-72
2022/06/22 09:15:39;;;;;;;7.05;4.65;;;25.00;60.60;;;;;;5055791;28;20495;-71
2022/06/22 09:18:30;;;;;;;10.18;4.25;;;24.80;59.20;;;;;;5073792;28;20117;-71
2022/06/22 09:21:19;;;;;;;7.28;4.78;;;24.60;57.10;;;;;;5073407;28;20489;-71
2022/06/22 09:24:16;;;;;;;13.15;5.35;;;24.30;58.30;;;;;;5073821;28;20405;-71
2022/06/22 09:27:09;;;;;;;7.97;4.57;;;24.40;58.90;;;;;;5055356;28;20044;-72
2022/06/22 09:29:45;;;;;;;7.05;4.13;;;24.60;58.10;;;;;;5073696;28;20041;-72
2022/06/22 09:32:30;;;;;;;8.10;4.18;;;24.80;57.40;;;;;;5073445;28;20090;-71
2022/06/22 09:35:27;;;;;;;9.40;4.90;;;24.90;57.20;;;;;;5073179;28;20041;-71
2022/06/22 09:37:53;;;;;;;11.88;4.38;;;24.90;58.90;;;;;;5073565;28;20083;-71
2022/06/22 09:40:52;;;;;;;12.95;4.75;;;24.90;58.30;;;;;;5073432;28;20072;-72
2022/06/22 09:43:54;;;;;;;9.82;4.80;;;24.40;58.00;;;;;;5055437;28;20083;-71
2022/06/22 09:46:30;;;;;;;7.80;3.97;;;24.60;59.60;;;;;;5073236;28;20052;-71
2022/06/22 09:49:26;;;;;;;8.35;4.28;;;24.90;57.80;;;;;;5073803;28;20067;-72
2022/06/22 09:52:07;;;;;;;8.52;4.43;;;24.60;59.00;;;;;;5059846;28;20482;-71
2022/06/22 09:57:38;;;;;;;9.25;4.38;;;24.10;61.20;;;;;;5093044;28;20044;-74
2022/06/22 10:00:05;;;;;;;8.07;3.92;;;23.80;62.10;;;;;;5076101;28;20442;-74
2022/06/22 10:03:02;;;;;;;11.93;5.22;;;23.30;62.90;;;;;;5090226;28;20102;-75
2022/06/22 10:05:37;;;;;;;7.32;4.88;;;23.20;62.50;;;;;;5065578;28;20044;-76
2022/06/22 10:08:25;;;;;;;7.28;4.63;;;23.40;62.10;;;;;;5072744;28;20036;-76
2022/06/22 10:11:17;;;;;;;7.85;5.03;;;23.50;61.10;;;;;;5057315;28;20039;-76
2022/06/22 10:13:58;;;;;;;12.63;5.63;;;23.50;59.70;;;;;;5058602;28;20044;-76
2022/06/22 10:17:00;;;;;;;8.73;4.53;;;23.60;60.10;;;;;;5081323;28;20048;-77
2022/06/22 10:19:25;;;;;;;8.00;4.25;;;23.30;62.10;;;;;;5080689;28;20036;-76
2022/06/22 10:22:16;;;;;;;9.07;3.92;;;23.40;62.10;;;;;;5072378;28;20386;-76
2022/06/22 10:25:19;;;;;;;8.93;4.57;;;23.40;59.60;;;;;;5054334;28;20048;-76
2022/06/22 10:28:01;;;;;;;7.15;3.20;;;23.30;59.10;;;;;;5054091;28;20048;-76
2022/06/22 10:30:26;;;;;;;8.70;4.15;;;23.50;59.00;;;;;;5038001;28;20490;-76
2022/06/22 10:33:34;;;;;;;10.48;3.92;;;23.70;61.00;;;;;;5054554;28;20039;-76
2022/06/22 10:36:18;;;;;;;7.93;4.05;;;23.70;59.00;;;;;;5054056;28;20090;-76
2022/06/22 10:39:17;;;;;;;8.20;3.53;;;23.80;58.40;;;;;;5056682;28;20125;-75
2022/06/22 10:45:16;;;;;;;9.40;4.13;;;23.60;58.50;;;;;;5066858;28;20489;-77
2022/06/22 10:47:57;;;;;;;8.70;4.13;;;23.50;60.70;;;;;;5053878;28;20490;-76
2022/06/22 10:51:00;;;;;;;8.88;3.60;;;23.60;58.60;;;;;;5054165;28;20505;-76
2022/06/22 10:53:37;;;;;;;8.13;3.88;;;23.70;55.60;;;;;;5059506;28;20044;-76
2022/06/22 10:56:24;;;;;;;6.28;3.35;;;23.50;56.40;;;;;;5079732;28;20044;-77
2022/06/22 10:59:27;;;;;;;6.97;3.28;;;23.50;56.90;;;;;;5053842;28;20170;-76
2022/06/22 11:02:15;;;;;;;7.35;3.78;;;23.60;59.50;;;;;;5071904;28;20120;-76
2022/06/22 11:05:07;;;;;;;6.60;3.97;;;23.70;60.00;;;;;;5071553;28;20036;-76
2022/06/22 11:07:47;;;;;;;8.02;3.28;;;23.80;59.00;;;;;;5071903;28;20056;-76
2022/06/22 11:10:25;;;;;;;7.20;3.20;;;23.80;57.70;;;;;;5053668;28;20067;-76
2022/06/22 11:13:35;;;;;;;9.13;3.50;;;23.90;56.80;;;;;;5037460;28;20040;-76
2022/06/22 11:16:20;;;;;;;7.47;3.15;;;24.00;56.90;;;;;;5053533;28;20037;-76
2022/06/22 11:19:29;;;;;;;8.38;3.65;;;24.20;59.30;;;;;;5053573;28;20040;-76
2022/06/22 11:22:15;;;;;;;5.47;3.00;;;24.10;57.80;;;;;;5012640;28;20040;-76
2022/06/22 11:30:48;;;;;;;7.85;3.50;;;24.20;59.30;;;;;;5047599;28;20150;-76
2022/06/22 11:31:34;;;;;;;8.27;3.10;;;24.30;57.40;;;;;;5062865;28;20474;-76
2022/06/22 11:34:30;;;;;;;8.23;3.13;;;24.30;58.20;;;;;;5064698;28;20038;-76
2022/06/22 11:37:16;;;;;;;7.40;3.30;;;24.10;57.10;;;;;;5074080;28;20048;-77
2022/06/22 11:39:59;;;;;;;8.98;4.07;;;24.10;58.10;;;;;;5071434;28;20033;-77
2022/06/22 11:42:56;;;;;;;7.00;3.60;;;23.80;58.30;;;;;;5053301;28;20093;-77
2022/06/22 11:45:54;;;;;;;4.90;3.00;;;23.90;59.80;;;;;;5071393;28;20448;-76
2022/06/22 11:48:25;;;;;;;8.40;3.47;;;23.90;58.90;;;;;;5054331;28;20045;-79
2022/06/22 11:51:31;;;;;;;7.28;4.15;;;23.90;58.40;;;;;;5053987;28;20555;-79
2022/06/22 11:54:12;;;;;;;7.97;3.55;;;23.60;58.20;;;;;;5016918;28;20053;-79
2022/06/22 11:56:55;;;;;;;9.05;3.83;;;23.30;59.50;;;;;;5071962;28;20040;-79
2022/06/22 11:59:50;;;;;;;12.00;3.75;;;23.50;59.80;;;;;;5055177;28;20047;-79
2022/06/22 12:02:52;;;;;;;8.90;3.10;;;23.60;59.30;;;;;;5058151;28;20040;-79
2022/06/22 12:05:47;;;;;;;7.82;3.15;;;23.70;61.00;;;;;;5076933;28;20124;-79
2022/06/22 12:08:28;;;;;;;12.20;4.93;;;23.50;60.10;;;;;;5059811;28;20050;-79
2022/06/22 12:11:16;;;;;;;7.07;3.75;;;23.60;60.70;;;;;;5058330;28;20086;-79
2022/06/22 12:16:49;;;;;;;8.07;3.63;;;23.30;61.00;;;;;;5057535;28;20048;-78
2022/06/22 12:19:41;;;;;;;6.45;3.45;;;23.20;64.40;;;;;;5057857;28;20044;-79
2022/06/22 12:22:15;;;;;;;4.95;3.38;;;23.00;67.00;;;;;;5057361;28;20048;-79
2022/06/22 12:24:47;;;;;;;8.52;3.47;;;22.90;64.10;;;;;;5057197;28;20051;-79
2022/06/22 12:27:48;;;;;;;8.32;4.15;;;23.20;66.80;;;;;;5057859;28;20036;-79
2022/06/22 12:30:32;;;;;;;9.10;4.85;;;23.30;64.80;;;;;;4957482;28;20035;-78
2022/06/22 12:33:15;;;;;;;8.70;4.60;;;23.40;63.20;;;;;;5049539;28;20053;-79
2022/06/22 12:36:01;;;;;;;9.77;4.47;;;23.50;63.00;;;;;;5056719;28;20041;-79
2022/06/22 12:38:36;;;;;;;9.20;4.30;;;23.40;65.90;;;;;;5074852;28;20028;-78
2022/06/22 12:41:18;;;;;;;7.68;4.53;;;23.40;65.80;;;;;;5056729;28;20064;-78
2022/06/22 12:43:58;;;;;;;8.02;4.35;;;23.50;63.50;;;;;;5056951;28;20036;-78
2022/06/22 12:46:45;;;;;;;9.77;4.53;;;23.50;64.00;;;;;;5074584;28;20398;-79
2022/06/22 12:49:32;;;;;;;10.77;4.18;;;23.50;64.30;;;;;;5056762;28;20032;-79
2022/06/22 12:52:05;;;;;;;9.38;4.82;;;23.60;65.90;;;;;;5056817;28;20083;-79
2022/06/22 12:54:41;;;;;;;7.20;3.78;;;23.80;68.70;;;;;;5056945;28;20124;-79
2022/06/22 12:57:32;;;;;;;8.48;4.20;;;23.80;65.50;;;;;;5040651;28;20493;-79
2022/06/22 13:00:06;;;;;;;8.32;4.40;;;23.70;65.40;;;;;;5056651;28;20045;-78
2022/06/22 13:02:33;;;;;;;8.27;4.43;;;23.60;64.20;;;;;;5057023;28;20052;-78
2022/06/22 13:05:05;;;;;;;7.80;4.07;;;23.40;63.50;;;;;;5056118;28;20052;-79
2022/06/22 13:07:36;;;;;;;11.23;4.78;;;23.70;62.10;;;;;;5056856;28;20490;-79
2022/06/22 13:10:02;;;;;;;13.55;4.75;;;23.80;61.40;;;;;;5056281;28;20443;-78
2022/06/22 13:12:40;;;;;;;7.63;3.90;;;23.80;61.80;;;;;;5055550;28;20422;-79
2022/06/22 13:15:26;;;;;;;7.05;4.32;;;23.90;61.70;;;;;;5056178;28;20048;-78
2022/06/22 13:18:34;;;;;;;7.13;3.72;;;24.00;61.60;;;;;;5073504;28;20044;-78
2022/06/22 13:21:12;;;;;;;6.18;3.90;;;23.90;61.60;;;;;;5102596;22;20418;-71
2022/06/22 13:23:56;;;;;;;5.68;3.03;;;24.00;63.20;;;;;;5092655;28;20048;-71
2022/06/22 13:26:41;;;;;;;8.63;4.05;;;24.20;64.40;;;;;;5092104;28;20119;-71
2022/06/22 13:29:25;;;;;;;6.70;3.38;;;24.10;63.60;;;;;;5093938;28;20036;-71
2022/06/22 13:31:57;;;;;;;9.50;4.00;;;24.00;66.10;;;;;;5092469;28;20036;-71
2022/06/22 13:34:32;;;;;;;6.50;3.47;;;24.10;63.20;;;;;;5092249;28;20048;-71
2022/06/22 13:37:40;;;;;;;7.57;3.47;;;24.30;61.80;;;;;;5091916;28;20516;-71
2022/06/22 13:40:29;;;;;;;8.80;3.53;;;24.20;60.50;;;;;;5076621;28;20093;-71
2022/06/22 13:43:32;;;;;;;8.48;4.03;;;24.30;60.60;;;;;;5092112;28;20040;-71
2022/06/22 13:46:21;;;;;;;10.85;3.97;;;24.20;60.00;;;;;;5091977;28;20051;-71
2022/06/22 13:49:11;;;;;;;7.28;3.70;;;24.10;60.60;;;;;;5093265;28;20064;-71
2022/06/22 13:51:55;;;;;;;7.35;4.13;;;23.90;61.20;;;;;;5091790;28;20079;-71
2022/06/22 13:54:45;;;;;;;5.65;3.80;;;24.00;61.70;;;;;;5093292;28;20040;-71
2022/06/22 13:57:33;;;;;;;7.18;3.50;;;24.00;65.30;;;;;;5093113;28;20114;-71
2022/06/22 14:00:04;;;;;;;7.28;3.75;;;24.00;64.10;;;;;;5092778;28;20036;-71
2022/06/22 14:02:58;;;;;;;7.93;4.65;;;24.00;63.60;;;;;;5091665;28;20074;-71
2022/06/22 14:05:38;;;;;;;8.68;5.15;;;24.00;62.40;;;;;;5091352;28;20623;-71
2022/06/22 14:08:14;;;;;;;9.85;3.95;;;24.00;62.30;;;;;;5091742;28;20409;-71